sensor_id;sensor_type;location;lat;lon;timestamp;pressure;altitude;pressure_sealevel;temperature
20092;BMP180;10205;49.678;6.560;2023-12-20T00:02:17;99998.00;;;10.40
20092;BMP180;10205;49.678;6.560;2023-12-20T00:04:44;100002.00;;;10.40
20092;BMP180;10205;49.678;6.560;2023-12-20T00:07:11;100003.00;;;10.40
20092;BMP180;10205;49.678;6.560;2023-12-20T00:09:38;100000.00;;;10.40
20092;BMP180;10205;49.678;6.560;2023-12-20T00:12:08;100006.00;;;10.40
20092;BMP180;10205;49.678;6.560;2023-12-20T00:14:35;100016.00;;;10.40
20092;BMP180;10205;49.678;6.560;2023-12-20T00:17:02;100012.00;;;10.40
20092;BMP180;10205;49.678;6.560;2023-12-20T00:19:29;100009.00;;;10.40
20092;BMP180;10205;49.678;6.560;2023-12-20T00:21:56;100000.00;;;10.40
20092;BMP180;10205;49.678;6.560;2023-12-20T00:24:25;100002.00;;;10.40
20092;BMP180;10205;49.678;6.560;2023-12-20T00:26:52;99996.00;;;10.40
20092;BMP180;10205;49.678;6.560;2023-12-20T00:29:20;99994.00;;;10.40
20092;BMP180;10205;49.678;6.560;2023-12-20T00:31:47;99992.00;;;10.40
20092;BMP180;10205;49.678;6.560;2023-12-20T00:34:14;100005.00;;;10.40
20092;BMP180;10205;49.678;6.560;2023-12-20T00:36:41;100002.00;;;10.40
20092;BMP180;10205;49.678;6.560;2023-12-20T00:39:08;100005.00;;;10.40
20092;BMP180;10205;49.678;6.560;2023-12-20T00:41:37;99998.00;;;10.40
20092;BMP180;10205;49.678;6.560;2023-12-20T00:44:04;99988.00;;;10.40
20092;BMP180;10205;49.678;6.560;2023-12-20T00:46:33;99994.00;;;10.40
20092;BMP180;10205;49.678;6.560;2023-12-20T00:49:00;99996.00;;;10.40
20092;BMP180;10205;49.678;6.560;2023-12-20T00:51:27;99983.00;;;10.40
20092;BMP180;10205;49.678;6.560;2023-12-20T00:53:54;100009.00;;;10.40
20092;BMP180;10205;49.678;6.560;2023-12-20T00:56:21;100019.00;;;10.40
20092;BMP180;10205;49.678;6.560;2023-12-20T00:58:48;99998.00;;;10.40
20092;BMP180;10205;49.678;6.560;2023-12-20T01:01:16;100000.00;;;10.40
20092;BMP180;10205;49.678;6.560;2023-12-20T01:03:44;100015.00;;;10.40
20092;BMP180;10205;49.678;6.560;2023-12-20T01:06:11;99994.00;;;10.40
20092;BMP180;10205;49.678;6.560;2023-12-20T01:08:38;100000.00;;;10.40
20092;BMP180;10205;49.678;6.560;2023-12-20T01:11:06;99984.00;;;10.40
20092;BMP180;10205;49.678;6.560;2023-12-20T01:13:33;99984.00;;;10.40
20092;BMP180;10205;49.678;6.560;2023-12-20T01:15:59;99994.00;;;10.40
20092;BMP180;10205;49.678;6.560;2023-12-20T01:18:26;100009.00;;;10.40
20092;BMP180;10205;49.678;6.560;2023-12-20T01:20:55;100002.00;;;10.40
20092;BMP180;10205;49.678;6.560;2023-12-20T01:23:22;100008.00;;;10.40
20092;BMP180;10205;49.678;6.560;2023-12-20T01:25:49;99996.00;;;10.40
20092;BMP180;10205;49.678;6.560;2023-12-20T01:28:16;99987.00;;;10.40
20092;BMP180;10205;49.678;6.560;2023-12-20T01:30:43;100011.00;;;10.40
20092;BMP180;10205;49.678;6.560;2023-12-20T01:33:10;99994.00;;;10.40
20092;BMP180;10205;49.678;6.560;2023-12-20T01:35:37;99997.00;;;10.40
20092;BMP180;10205;49.678;6.560;2023-12-20T01:38:06;99989.00;;;10.40
20092;BMP180;10205;49.678;6.560;2023-12-20T01:40:33;99993.00;;;10.40
20092;BMP180;10205;49.678;6.560;2023-12-20T01:43:00;99987.00;;;10.40
20092;BMP180;10205;49.678;6.560;2023-12-20T01:45:28;100004.00;;;10.40
20092;BMP180;10205;49.678;6.560;2023-12-20T01:47:57;100021.00;;;10.40
20092;BMP180;10205;49.678;6.560;2023-12-20T01:50:24;100008.00;;;10.40
20092;BMP180;10205;49.678;6.560;2023-12-20T01:52:54;100002.00;;;10.40
20092;BMP180;10205;49.678;6.560;2023-12-20T01:55:25;100004.00;;;10.40
20092;BMP180;10205;49.678;6.560;2023-12-20T01:57:54;100001.00;;;10.40
20092;BMP180;10205;49.678;6.560;2023-12-20T02:00:22;100008.00;;;10.40
20092;BMP180;10205;49.678;6.560;2023-12-20T02:02:53;100013.00;;;10.40
20092;BMP180;10205;49.678;6.560;2023-12-20T02:05:21;100008.00;;;10.40
20092;BMP180;10205;49.678;6.560;2023-12-20T02:07:49;100017.00;;;10.40
20092;BMP180;10205;49.678;6.560;2023-12-20T02:10:16;100011.00;;;10.40
20092;BMP180;10205;49.678;6.560;2023-12-20T02:12:44;100020.00;;;10.40
20092;BMP180;10205;49.678;6.560;2023-12-20T02:15:12;100031.00;;;10.40
20092;BMP180;10205;49.678;6.560;2023-12-20T02:17:40;100020.00;;;10.40
20092;BMP180;10205;49.678;6.560;2023-12-20T02:20:07;100029.00;;;10.40
20092;BMP180;10205;49.678;6.560;2023-12-20T02:22:36;100020.00;;;10.40
20092;BMP180;10205;49.678;6.560;2023-12-20T02:25:04;100028.00;;;10.40
20092;BMP180;10205;49.678;6.560;2023-12-20T02:27:31;100037.00;;;10.40
20092;BMP180;10205;49.678;6.560;2023-12-20T02:29:58;100033.00;;;10.40
20092;BMP180;10205;49.678;6.560;2023-12-20T02:32:25;100046.00;;;10.40
20092;BMP180;10205;49.678;6.560;2023-12-20T02:34:53;100034.00;;;10.40
20092;BMP180;10205;49.678;6.560;2023-12-20T02:37:20;100036.00;;;10.40
20092;BMP180;10205;49.678;6.560;2023-12-20T02:39:48;100029.00;;;10.40
20092;BMP180;10205;49.678;6.560;2023-12-20T02:42:16;100026.00;;;10.40
20092;BMP180;10205;49.678;6.560;2023-12-20T02:44:43;100036.00;;;10.40
20092;BMP180;10205;49.678;6.560;2023-12-20T02:47:10;99980.00;;;10.40
20092;BMP180;10205;49.678;6.560;2023-12-20T02:49:37;100034.00;;;10.40
20092;BMP180;10205;49.678;6.560;2023-12-20T02:52:05;100043.00;;;10.40
20092;BMP180;10205;49.678;6.560;2023-12-20T02:54:32;100052.00;;;10.40
20092;BMP180;10205;49.678;6.560;2023-12-20T02:57:00;100040.00;;;10.40
20092;BMP180;10205;49.678;6.560;2023-12-20T02:59:27;100041.00;;;10.40
20092;BMP180;10205;49.678;6.560;2023-12-20T03:01:54;100055.00;;;10.40
20092;BMP180;10205;49.678;6.560;2023-12-20T03:04:21;100080.00;;;10.40
20092;BMP180;10205;49.678;6.560;2023-12-20T03:06:48;100058.00;;;10.40
20092;BMP180;10205;49.678;6.560;2023-12-20T03:09:15;100063.00;;;10.40
20092;BMP180;10205;49.678;6.560;2023-12-20T03:11:43;100081.00;;;10.40
20092;BMP180;10205;49.678;6.560;2023-12-20T03:14:11;100088.00;;;10.40
20092;BMP180;10205;49.678;6.560;2023-12-20T03:16:38;100084.00;;;10.40
20092;BMP180;10205;49.678;6.560;2023-12-20T03:19:05;100089.00;;;10.40
20092;BMP180;10205;49.678;6.560;2023-12-20T03:21:32;100097.00;;;10.40
20092;BMP180;10205;49.678;6.560;2023-12-20T03:23:59;100096.00;;;10.30
20092;BMP180;10205;49.678;6.560;2023-12-20T03:26:26;100093.00;;;10.30
20092;BMP180;10205;49.678;6.560;2023-12-20T03:28:54;100101.00;;;10.30
20092;BMP180;10205;49.678;6.560;2023-12-20T03:31:22;100114.00;;;10.30
20092;BMP180;10205;49.678;6.560;2023-12-20T03:33:50;100118.00;;;10.30
20092;BMP180;10205;49.678;6.560;2023-12-20T03:36:19;100121.00;;;10.20
20092;BMP180;10205;49.678;6.560;2023-12-20T03:38:46;100138.00;;;10.20
20092;BMP180;10205;49.678;6.560;2023-12-20T03:41:14;100129.00;;;10.10
20092;BMP180;10205;49.678;6.560;2023-12-20T03:43:41;100134.00;;;10.10
20092;BMP180;10205;49.678;6.560;2023-12-20T03:46:09;100134.00;;;10.00
20092;BMP180;10205;49.678;6.560;2023-12-20T03:48:37;100120.00;;;10.10
20092;BMP180;10205;49.678;6.560;2023-12-20T03:51:05;100124.00;;;10.10
20092;BMP180;10205;49.678;6.560;2023-12-20T03:53:32;100146.00;;;10.10
20092;BMP180;10205;49.678;6.560;2023-12-20T03:55:59;100138.00;;;10.10
20092;BMP180;10205;49.678;6.560;2023-12-20T03:58:25;100136.00;;;10.10
20092;BMP180;10205;49.678;6.560;2023-12-20T04:00:52;100152.00;;;10.10
20092;BMP180;10205;49.678;6.560;2023-12-20T04:03:19;100151.00;;;10.10
20092;BMP180;10205;49.678;6.560;2023-12-20T04:05:48;100135.00;;;10.10
20092;BMP180;10205;49.678;6.560;2023-12-20T04:08:15;100152.00;;;10.10
20092;BMP180;10205;49.678;6.560;2023-12-20T04:10:42;100139.00;;;10.10
20092;BMP180;10205;49.678;6.560;2023-12-20T04:13:09;100156.00;;;10.20
20092;BMP180;10205;49.678;6.560;2023-12-20T04:15:36;100135.00;;;10.10
20092;BMP180;10205;49.678;6.560;2023-12-20T04:18:04;100144.00;;;10.10
20092;BMP180;10205;49.678;6.560;2023-12-20T04:20:31;100142.00;;;10.10
20092;BMP180;10205;49.678;6.560;2023-12-20T04:23:00;100145.00;;;10.10
20092;BMP180;10205;49.678;6.560;2023-12-20T04:25:27;100144.00;;;10.10
20092;BMP180;10205;49.678;6.560;2023-12-20T04:27:54;100147.00;;;10.10
20092;BMP180;10205;49.678;6.560;2023-12-20T04:30:22;100148.00;;;10.10
20092;BMP180;10205;49.678;6.560;2023-12-20T04:32:50;100139.00;;;10.10
20092;BMP180;10205;49.678;6.560;2023-12-20T04:35:17;100145.00;;;10.10
20092;BMP180;10205;49.678;6.560;2023-12-20T04:37:44;100148.00;;;10.10
20092;BMP180;10205;49.678;6.560;2023-12-20T04:40:13;100152.00;;;10.10
20092;BMP180;10205;49.678;6.560;2023-12-20T04:42:40;100158.00;;;10.00
20092;BMP180;10205;49.678;6.560;2023-12-20T04:45:08;100163.00;;;10.00
20092;BMP180;10205;49.678;6.560;2023-12-20T04:47:35;100160.00;;;10.00
20092;BMP180;10205;49.678;6.560;2023-12-20T04:50:03;100159.00;;;10.00
20092;BMP180;10205;49.678;6.560;2023-12-20T04:52:31;100156.00;;;10.00
20092;BMP180;10205;49.678;6.560;2023-12-20T04:54:58;100158.00;;;10.00
20092;BMP180;10205;49.678;6.560;2023-12-20T04:57:27;100163.00;;;10.00
20092;BMP180;10205;49.678;6.560;2023-12-20T04:59:54;100173.00;;;10.00
20092;BMP180;10205;49.678;6.560;2023-12-20T05:02:23;100168.00;;;9.90
20092;BMP180;10205;49.678;6.560;2023-12-20T05:04:50;100172.00;;;9.90
20092;BMP180;10205;49.678;6.560;2023-12-20T05:07:18;100187.00;;;9.90
20092;BMP180;10205;49.678;6.560;2023-12-20T05:09:46;100187.00;;;9.90
20092;BMP180;10205;49.678;6.560;2023-12-20T05:12:14;100179.00;;;9.90
20092;BMP180;10205;49.678;6.560;2023-12-20T05:14:43;100175.00;;;9.80
20092;BMP180;10205;49.678;6.560;2023-12-20T05:17:10;100189.00;;;9.80
20092;BMP180;10205;49.678;6.560;2023-12-20T05:19:37;100182.00;;;9.80
20092;BMP180;10205;49.678;6.560;2023-12-20T05:22:04;100189.00;;;9.70
20092;BMP180;10205;49.678;6.560;2023-12-20T05:24:31;100192.00;;;9.70
20092;BMP180;10205;49.678;6.560;2023-12-20T05:26:58;100197.00;;;9.70
20092;BMP180;10205;49.678;6.560;2023-12-20T05:29:27;100188.00;;;9.70
20092;BMP180;10205;49.678;6.560;2023-12-20T05:31:58;100187.00;;;9.60
20092;BMP180;10205;49.678;6.560;2023-12-20T05:34:25;100190.00;;;9.60
20092;BMP180;10205;49.678;6.560;2023-12-20T05:36:58;100188.00;;;9.60
20092;BMP180;10205;49.678;6.560;2023-12-20T05:39:25;100198.00;;;9.60
20092;BMP180;10205;49.678;6.560;2023-12-20T05:41:54;100202.00;;;9.50
20092;BMP180;10205;49.678;6.560;2023-12-20T05:44:22;100197.00;;;9.50
20092;BMP180;10205;49.678;6.560;2023-12-20T05:46:50;100206.00;;;9.50
20092;BMP180;10205;49.678;6.560;2023-12-20T05:49:18;100196.00;;;9.50
20092;BMP180;10205;49.678;6.560;2023-12-20T05:51:45;100194.00;;;9.50
20092;BMP180;10205;49.678;6.560;2023-12-20T05:54:13;100200.00;;;9.50
20092;BMP180;10205;49.678;6.560;2023-12-20T05:56:40;100214.00;;;9.40
20092;BMP180;10205;49.678;6.560;2023-12-20T05:59:08;100202.00;;;9.40
20092;BMP180;10205;49.678;6.560;2023-12-20T06:01:35;100189.00;;;9.40
20092;BMP180;10205;49.678;6.560;2023-12-20T06:04:03;100205.00;;;9.40
20092;BMP180;10205;49.678;6.560;2023-12-20T06:06:32;100206.00;;;9.40
20092;BMP180;10205;49.678;6.560;2023-12-20T06:08:59;100209.00;;;9.40
20092;BMP180;10205;49.678;6.560;2023-12-20T06:11:26;100210.00;;;9.40
20092;BMP180;10205;49.678;6.560;2023-12-20T06:13:53;100207.00;;;9.40
20092;BMP180;10205;49.678;6.560;2023-12-20T06:16:20;100223.00;;;9.40
20092;BMP180;10205;49.678;6.560;2023-12-20T06:18:47;100224.00;;;9.40
20092;BMP180;10205;49.678;6.560;2023-12-20T06:21:14;100222.00;;;9.40
20092;BMP180;10205;49.678;6.560;2023-12-20T06:23:44;100230.00;;;9.40
20092;BMP180;10205;49.678;6.560;2023-12-20T06:26:11;100223.00;;;9.30
20092;BMP180;10205;49.678;6.560;2023-12-20T06:28:38;100219.00;;;9.40
20092;BMP180;10205;49.678;6.560;2023-12-20T06:31:05;100226.00;;;9.40
20092;BMP180;10205;49.678;6.560;2023-12-20T06:33:33;100218.00;;;9.40
20092;BMP180;10205;49.678;6.560;2023-12-20T06:36:00;100221.00;;;9.40
20092;BMP180;10205;49.678;6.560;2023-12-20T06:38:27;100221.00;;;9.40
20092;BMP180;10205;49.678;6.560;2023-12-20T06:40:58;100218.00;;;9.40
20092;BMP180;10205;49.678;6.560;2023-12-20T06:43:25;100215.00;;;9.40
20092;BMP180;10205;49.678;6.560;2023-12-20T06:45:52;100216.00;;;9.40
20092;BMP180;10205;49.678;6.560;2023-12-20T06:48:19;100214.00;;;9.40
20092;BMP180;10205;49.678;6.560;2023-12-20T06:50:47;100218.00;;;9.40
20092;BMP180;10205;49.678;6.560;2023-12-20T06:53:14;100236.00;;;9.40
20092;BMP180;10205;49.678;6.560;2023-12-20T06:55:41;100236.00;;;9.40
20092;BMP180;10205;49.678;6.560;2023-12-20T06:58:10;100214.00;;;9.40
20092;BMP180;10205;49.678;6.560;2023-12-20T07:00:37;100242.00;;;9.40
20092;BMP180;10205;49.678;6.560;2023-12-20T07:03:04;100226.00;;;9.40
20092;BMP180;10205;49.678;6.560;2023-12-20T07:05:31;100229.00;;;9.40
20092;BMP180;10205;49.678;6.560;2023-12-20T07:07:59;100236.00;;;9.40
20092;BMP180;10205;49.678;6.560;2023-12-20T07:10:27;100244.00;;;9.40
20092;BMP180;10205;49.678;6.560;2023-12-20T07:12:54;100235.00;;;9.30
20092;BMP180;10205;49.678;6.560;2023-12-20T07:15:23;100227.00;;;9.30
20092;BMP180;10205;49.678;6.560;2023-12-20T07:17:51;100233.00;;;9.30
20092;BMP180;10205;49.678;6.560;2023-12-20T07:20:18;100238.00;;;9.30
20092;BMP180;10205;49.678;6.560;2023-12-20T07:22:45;100233.00;;;9.30
20092;BMP180;10205;49.678;6.560;2023-12-20T07:25:12;100234.00;;;9.30
20092;BMP180;10205;49.678;6.560;2023-12-20T07:27:39;100245.00;;;9.30
20092;BMP180;10205;49.678;6.560;2023-12-20T07:30:08;100243.00;;;9.30
20092;BMP180;10205;49.678;6.560;2023-12-20T07:32:36;100244.00;;;9.30
20092;BMP180;10205;49.678;6.560;2023-12-20T07:35:04;100241.00;;;9.30
20092;BMP180;10205;49.678;6.560;2023-12-20T07:37:32;100250.00;;;9.30
20092;BMP180;10205;49.678;6.560;2023-12-20T07:39:59;100257.00;;;9.30
20092;BMP180;10205;49.678;6.560;2023-12-20T07:42:26;100249.00;;;9.30
20092;BMP180;10205;49.678;6.560;2023-12-20T07:44:53;100255.00;;;9.30
20092;BMP180;10205;49.678;6.560;2023-12-20T07:47:21;100246.00;;;9.30
20092;BMP180;10205;49.678;6.560;2023-12-20T07:49:52;100271.00;;;9.30
20092;BMP180;10205;49.678;6.560;2023-12-20T07:52:20;100265.00;;;9.30
20092;BMP180;10205;49.678;6.560;2023-12-20T07:54:49;100279.00;;;9.30
20092;BMP180;10205;49.678;6.560;2023-12-20T07:57:16;100265.00;;;9.30
20092;BMP180;10205;49.678;6.560;2023-12-20T07:59:44;100241.00;;;9.30
20092;BMP180;10205;49.678;6.560;2023-12-20T08:02:11;100276.00;;;9.30
20092;BMP180;10205;49.678;6.560;2023-12-20T08:04:38;100266.00;;;9.30
20092;BMP180;10205;49.678;6.560;2023-12-20T08:07:06;100269.00;;;9.30
20092;BMP180;10205;49.678;6.560;2023-12-20T08:09:34;100265.00;;;9.30
20092;BMP180;10205;49.678;6.560;2023-12-20T08:12:03;100267.00;;;9.30
20092;BMP180;10205;49.678;6.560;2023-12-20T08:14:30;100277.00;;;9.30
20092;BMP180;10205;49.678;6.560;2023-12-20T08:16:58;100266.00;;;9.30
20092;BMP180;10205;49.678;6.560;2023-12-20T08:19:25;100271.00;;;9.30
20092;BMP180;10205;49.678;6.560;2023-12-20T08:21:52;100265.00;;;9.30
20092;BMP180;10205;49.678;6.560;2023-12-20T08:24:21;100271.00;;;9.30
20092;BMP180;10205;49.678;6.560;2023-12-20T08:26:48;100268.00;;;9.30
20092;BMP180;10205;49.678;6.560;2023-12-20T08:29:15;100267.00;;;9.30
20092;BMP180;10205;49.678;6.560;2023-12-20T08:31:42;100263.00;;;9.30
20092;BMP180;10205;49.678;6.560;2023-12-20T08:34:09;100267.00;;;9.30
20092;BMP180;10205;49.678;6.560;2023-12-20T08:36:38;100251.00;;;9.30
20092;BMP180;10205;49.678;6.560;2023-12-20T08:39:05;100265.00;;;9.30
20092;BMP180;10205;49.678;6.560;2023-12-20T08:41:35;100274.00;;;9.30
20092;BMP180;10205;49.678;6.560;2023-12-20T08:44:02;100272.00;;;9.30
20092;BMP180;10205;49.678;6.560;2023-12-20T08:46:30;100264.00;;;9.30
20092;BMP180;10205;49.678;6.560;2023-12-20T08:48:57;100281.00;;;9.30
20092;BMP180;10205;49.678;6.560;2023-12-20T08:51:24;100279.00;;;9.30
20092;BMP180;10205;49.678;6.560;2023-12-20T08:53:52;100285.00;;;9.40
20092;BMP180;10205;49.678;6.560;2023-12-20T08:56:19;100293.00;;;9.40
20092;BMP180;10205;49.678;6.560;2023-12-20T08:58:48;100286.00;;;9.30
20092;BMP180;10205;49.678;6.560;2023-12-20T09:01:15;100281.00;;;9.40
20092;BMP180;10205;49.678;6.560;2023-12-20T09:03:42;100267.00;;;9.40
20092;BMP180;10205;49.678;6.560;2023-12-20T09:06:10;100275.00;;;9.40
20092;BMP180;10205;49.678;6.560;2023-12-20T09:08:37;100283.00;;;9.40
20092;BMP180;10205;49.678;6.560;2023-12-20T09:11:04;100283.00;;;9.40
20092;BMP180;10205;49.678;6.560;2023-12-20T09:13:32;100289.00;;;9.40
20092;BMP180;10205;49.678;6.560;2023-12-20T09:16:01;100284.00;;;9.40
20092;BMP180;10205;49.678;6.560;2023-12-20T09:18:28;100287.00;;;9.40
20092;BMP180;10205;49.678;6.560;2023-12-20T09:20:55;100290.00;;;9.40
20092;BMP180;10205;49.678;6.560;2023-12-20T09:23:22;100296.00;;;9.40
20092;BMP180;10205;49.678;6.560;2023-12-20T09:25:49;100303.00;;;9.50
20092;BMP180;10205;49.678;6.560;2023-12-20T09:28:16;100304.00;;;9.40
20092;BMP180;10205;49.678;6.560;2023-12-20T09:30:43;100303.00;;;9.40
20092;BMP180;10205;49.678;6.560;2023-12-20T09:33:13;100292.00;;;9.40
20092;BMP180;10205;49.678;6.560;2023-12-20T09:35:42;100284.00;;;9.40
20092;BMP180;10205;49.678;6.560;2023-12-20T09:38:09;100293.00;;;9.40
20092;BMP180;10205;49.678;6.560;2023-12-20T09:40:41;100281.00;;;9.50
20092;BMP180;10205;49.678;6.560;2023-12-20T09:43:12;100278.00;;;9.50
20092;BMP180;10205;49.678;6.560;2023-12-20T09:45:41;100277.00;;;9.50
20092;BMP180;10205;49.678;6.560;2023-12-20T09:48:12;100264.00;;;9.50
20092;BMP180;10205;49.678;6.560;2023-12-20T09:50:40;100274.00;;;9.50
20092;BMP180;10205;49.678;6.560;2023-12-20T09:53:10;100283.00;;;9.50
20092;BMP180;10205;49.678;6.560;2023-12-20T09:55:41;100283.00;;;9.50
20092;BMP180;10205;49.678;6.560;2023-12-20T09:58:10;100288.00;;;9.50
20092;BMP180;10205;49.678;6.560;2023-12-20T10:00:37;100288.00;;;9.50
20092;BMP180;10205;49.678;6.560;2023-12-20T10:03:06;100262.00;;;9.60
20092;BMP180;10205;49.678;6.560;2023-12-20T10:05:35;100278.00;;;9.60
20092;BMP180;10205;49.678;6.560;2023-12-20T10:08:02;100271.00;;;9.60
20092;BMP180;10205;49.678;6.560;2023-12-20T10:10:30;100282.00;;;9.60
20092;BMP180;10205;49.678;6.560;2023-12-20T10:13:05;100295.00;;;9.70
20092;BMP180;10205;49.678;6.560;2023-12-20T10:15:33;100277.00;;;9.70
20092;BMP180;10205;49.678;6.560;2023-12-20T10:18:01;100261.00;;;9.60
20092;BMP180;10205;49.678;6.560;2023-12-20T10:20:28;100270.00;;;9.70
20092;BMP180;10205;49.678;6.560;2023-12-20T10:22:58;100264.00;;;9.70
20092;BMP180;10205;49.678;6.560;2023-12-20T10:25:27;100256.00;;;9.70
20092;BMP180;10205;49.678;6.560;2023-12-20T10:28:12;100258.00;;;9.70
20092;BMP180;10205;49.678;6.560;2023-12-20T10:30:40;100258.00;;;9.70
20092;BMP180;10205;49.678;6.560;2023-12-20T10:33:08;100262.00;;;9.70
20092;BMP180;10205;49.678;6.560;2023-12-20T10:35:37;100267.00;;;9.70
20092;BMP180;10205;49.678;6.560;2023-12-20T10:38:11;100271.00;;;9.70
20092;BMP180;10205;49.678;6.560;2023-12-20T10:40:39;100265.00;;;9.70
20092;BMP180;10205;49.678;6.560;2023-12-20T10:43:08;100266.00;;;9.70
20092;BMP180;10205;49.678;6.560;2023-12-20T10:45:35;100265.00;;;9.70
20092;BMP180;10205;49.678;6.560;2023-12-20T10:48:04;100278.00;;;9.80
20092;BMP180;10205;49.678;6.560;2023-12-20T10:50:32;100263.00;;;9.80
20092;BMP180;10205;49.678;6.560;2023-12-20T10:52:59;100258.00;;;9.80
20092;BMP180;10205;49.678;6.560;2023-12-20T10:55:28;100274.00;;;9.80
20092;BMP180;10205;49.678;6.560;2023-12-20T10:58:02;100263.00;;;9.80
20092;BMP180;10205;49.678;6.560;2023-12-20T11:00:35;100262.00;;;9.80
20092;BMP180;10205;49.678;6.560;2023-12-20T11:03:09;100266.00;;;9.80
20092;BMP180;10205;49.678;6.560;2023-12-20T11:05:44;100259.00;;;9.80
20092;BMP180;10205;49.678;6.560;2023-12-20T11:08:24;100260.00;;;9.80
20092;BMP180;10205;49.678;6.560;2023-12-20T11:11:05;100263.00;;;9.80
20092;BMP180;10205;49.678;6.560;2023-12-20T11:13:41;100251.00;;;9.80
20092;BMP180;10205;49.678;6.560;2023-12-20T11:16:11;100251.00;;;9.80
20092;BMP180;10205;49.678;6.560;2023-12-20T11:18:41;100231.00;;;9.90
20092;BMP180;10205;49.678;6.560;2023-12-20T11:21:11;100233.00;;;9.80
20092;BMP180;10205;49.678;6.560;2023-12-20T11:23:42;100226.00;;;9.80
20092;BMP180;10205;49.678;6.560;2023-12-20T11:26:11;100226.00;;;9.90
20092;BMP180;10205;49.678;6.560;2023-12-20T11:28:42;100202.00;;;9.90
20092;BMP180;10205;49.678;6.560;2023-12-20T11:31:14;100215.00;;;9.90
20092;BMP180;10205;49.678;6.560;2023-12-20T11:33:43;100206.00;;;9.90
20092;BMP180;10205;49.678;6.560;2023-12-20T11:36:14;100208.00;;;9.90
20092;BMP180;10205;49.678;6.560;2023-12-20T11:38:54;100201.00;;;9.90
20092;BMP180;10205;49.678;6.560;2023-12-20T11:41:25;100200.00;;;10.00
20092;BMP180;10205;49.678;6.560;2023-12-20T11:43:53;100203.00;;;10.00
20092;BMP180;10205;49.678;6.560;2023-12-20T11:46:21;100217.00;;;10.00
20092;BMP180;10205;49.678;6.560;2023-12-20T11:48:48;100223.00;;;10.00
20092;BMP180;10205;49.678;6.560;2023-12-20T11:51:15;100219.00;;;10.00
20092;BMP180;10205;49.678;6.560;2023-12-20T11:53:43;100215.00;;;10.10
20092;BMP180;10205;49.678;6.560;2023-12-20T11:56:10;100221.00;;;10.10
20092;BMP180;10205;49.678;6.560;2023-12-20T11:58:41;100216.00;;;10.10
20092;BMP180;10205;49.678;6.560;2023-12-20T12:01:09;100234.00;;;10.10
20092;BMP180;10205;49.678;6.560;2023-12-20T12:03:36;100228.00;;;10.10
20092;BMP180;10205;49.678;6.560;2023-12-20T12:06:04;100228.00;;;10.20
20092;BMP180;10205;49.678;6.560;2023-12-20T12:08:31;100223.00;;;10.20
20092;BMP180;10205;49.678;6.560;2023-12-20T12:10:59;100206.00;;;10.10
20092;BMP180;10205;49.678;6.560;2023-12-20T12:13:27;100211.00;;;10.10
20092;BMP180;10205;49.678;6.560;2023-12-20T12:15:55;100203.00;;;10.20
20092;BMP180;10205;49.678;6.560;2023-12-20T12:18:23;100209.00;;;10.20
20092;BMP180;10205;49.678;6.560;2023-12-20T12:21:00;100198.00;;;10.20
20092;BMP180;10205;49.678;6.560;2023-12-20T12:23:27;100202.00;;;10.20
20092;BMP180;10205;49.678;6.560;2023-12-20T12:25:55;100197.00;;;10.20
20092;BMP180;10205;49.678;6.560;2023-12-20T12:28:26;100192.00;;;10.20
20092;BMP180;10205;49.678;6.560;2023-12-20T12:30:59;100187.00;;;10.20
20092;BMP180;10205;49.678;6.560;2023-12-20T12:33:26;100172.00;;;10.30
20092;BMP180;10205;49.678;6.560;2023-12-20T12:35:54;100177.00;;;10.30
20092;BMP180;10205;49.678;6.560;2023-12-20T12:38:22;100172.00;;;10.30
20092;BMP180;10205;49.678;6.560;2023-12-20T12:40:50;100167.00;;;10.30
20092;BMP180;10205;49.678;6.560;2023-12-20T12:43:19;100173.00;;;10.30
20092;BMP180;10205;49.678;6.560;2023-12-20T12:45:46;100168.00;;;10.30
20092;BMP180;10205;49.678;6.560;2023-12-20T12:48:15;100160.00;;;10.40
20092;BMP180;10205;49.678;6.560;2023-12-20T12:50:42;100162.00;;;10.40
20092;BMP180;10205;49.678;6.560;2023-12-20T12:53:09;100171.00;;;10.40
20092;BMP180;10205;49.678;6.560;2023-12-20T12:55:36;100166.00;;;10.40
20092;BMP180;10205;49.678;6.560;2023-12-20T12:58:03;100159.00;;;10.40
20092;BMP180;10205;49.678;6.560;2023-12-20T13:00:31;100154.00;;;10.40
20092;BMP180;10205;49.678;6.560;2023-12-20T13:02:58;100158.00;;;10.40
20092;BMP180;10205;49.678;6.560;2023-12-20T13:05:27;100159.00;;;10.40
20092;BMP180;10205;49.678;6.560;2023-12-20T13:07:54;100150.00;;;10.40
20092;BMP180;10205;49.678;6.560;2023-12-20T13:10:21;100158.00;;;10.50
20092;BMP180;10205;49.678;6.560;2023-12-20T13:12:49;100147.00;;;10.50
20092;BMP180;10205;49.678;6.560;2023-12-20T13:15:18;100133.00;;;10.50
20092;BMP180;10205;49.678;6.560;2023-12-20T13:17:45;100138.00;;;10.50
20092;BMP180;10205;49.678;6.560;2023-12-20T13:20:13;100126.00;;;10.40
20092;BMP180;10205;49.678;6.560;2023-12-20T13:22:41;100113.00;;;10.50
20092;BMP180;10205;49.678;6.560;2023-12-20T13:25:08;100125.00;;;10.50
20092;BMP180;10205;49.678;6.560;2023-12-20T13:27:35;100115.00;;;10.50
20092;BMP180;10205;49.678;6.560;2023-12-20T13:30:04;100122.00;;;10.50
20092;BMP180;10205;49.678;6.560;2023-12-20T13:32:31;100117.00;;;10.50
20092;BMP180;10205;49.678;6.560;2023-12-20T13:34:59;100116.00;;;10.50
20092;BMP180;10205;49.678;6.560;2023-12-20T13:37:26;100126.00;;;10.50
20092;BMP180;10205;49.678;6.560;2023-12-20T13:39:54;100129.00;;;10.60
20092;BMP180;10205;49.678;6.560;2023-12-20T13:42:21;100126.00;;;10.60
20092;BMP180;10205;49.678;6.560;2023-12-20T13:44:49;100118.00;;;10.60
20092;BMP180;10205;49.678;6.560;2023-12-20T13:47:16;100097.00;;;10.60
20092;BMP180;10205;49.678;6.560;2023-12-20T13:49:45;100097.00;;;10.60
20092;BMP180;10205;49.678;6.560;2023-12-20T13:52:12;100089.00;;;10.60
20092;BMP180;10205;49.678;6.560;2023-12-20T13:54:41;100086.00;;;10.60
20092;BMP180;10205;49.678;6.560;2023-12-20T13:57:10;100092.00;;;10.60
20092;BMP180;10205;49.678;6.560;2023-12-20T13:59:37;100093.00;;;10.60
20092;BMP180;10205;49.678;6.560;2023-12-20T14:02:04;100096.00;;;10.70
20092;BMP180;10205;49.678;6.560;2023-12-20T14:04:32;100066.00;;;10.60
20092;BMP180;10205;49.678;6.560;2023-12-20T14:06:59;100105.00;;;10.70
20092;BMP180;10205;49.678;6.560;2023-12-20T14:09:26;100088.00;;;10.70